Time;durP1;ratioP1;P1;durP2;ratioP2;P2;SDS_P1;SDS_P2;PMS_P1;PMS_P2;Temp;Humidity;BMP_temperature;BMP_pressure;BME280_temperature;BME280_humidity;BME280_pressure;Samples;Min_cycle;Max_cycle;Signal;HPM_P1;HPM_P2
2021/03/15 00:01:27;;;;;;;9.20;1.48;;;21.00;51.40;;;;;;5269071;28;20057;-78
2021/03/15 00:03:58;;;;;;;5.50;1.52;;;21.00;51.50;;;;;;5270786;28;20030;-79
2021/03/15 00:06:28;;;;;;;6.15;1.20;;;21.00;51.70;;;;;;5269761;28;20032;-79
2021/03/15 00:08:58;;;;;;;10.75;1.90;;;21.00;51.70;;;;;;5270519;28;20022;-79
2021/03/15 00:11:29;;;;;;;7.68;1.73;;;21.00;51.70;;;;;;5274903;28;20011;-78
2021/03/15 00:14:00;;;;;;;4.82;1.30;;;21.00;51.80;;;;;;5290542;28;20057;-78
2021/03/15 00:16:30;;;;;;;6.65;1.30;;;21.00;51.90;;;;;;5290269;28;20028;-79
2021/03/15 00:19:01;;;;;;;3.83;1.02;;;20.90;51.70;;;;;;5290142;28;20529;-77
2021/03/15 00:21:31;;;;;;;4.28;1.20;;;20.90;51.80;;;;;;5273904;28;20024;-78
2021/03/15 00:24:02;;;;;;;3.60;1.25;;;20.90;51.90;;;;;;5273475;28;20032;-79
2021/03/15 00:26:33;;;;;;;6.20;1.33;;;20.90;51.80;;;;;;5273716;28;20435;-79
2021/03/15 00:29:03;;;;;;;7.07;1.25;;;20.90;52.00;;;;;;5251276;28;20024;-78
2021/03/15 00:31:33;;;;;;;4.53;1.17;;;20.90;52.10;;;;;;5268945;28;20036;-78
2021/03/15 00:34:04;;;;;;;3.15;1.05;;;20.90;52.60;;;;;;5269309;28;20020;-77
2021/03/15 00:36:34;;;;;;;4.00;1.33;;;20.90;52.20;;;;;;5269407;28;20055;-78
2021/03/15 00:39:05;;;;;;;5.20;1.15;;;20.90;52.10;;;;;;5268208;28;20494;-78
2021/03/15 00:41:36;;;;;;;7.32;1.27;;;20.90;52.30;;;;;;5267478;28;20031;-77
2021/03/15 00:44:07;;;;;;;5.10;1.13;;;20.90;52.20;;;;;;5255190;28;20050;-77
2021/03/15 00:46:38;;;;;;;7.97;1.27;;;20.90;52.30;;;;;;5288615;27;20039;-78
2021/03/15 00:49:08;;;;;;;8.70;1.23;;;20.90;52.20;;;;;;5271140;28;20085;-78
2021/03/15 00:51:39;;;;;;;4.47;1.23;;;20.90;52.50;;;;;;5272526;28;20065;-77
2021/03/15 00:54:09;;;;;;;7.57;1.52;;;20.90;52.40;;;;;;5288936;28;20084;-77
2021/03/15 00:56:40;;;;;;;5.15;1.17;;;20.90;52.70;;;;;;5273632;28;20106;-77
2021/03/15 00:59:10;;;;;;;10.60;1.42;;;20.90;52.40;;;;;;5288195;28;20020;-77
2021/03/15 01:01:41;;;;;;;6.68;1.30;;;20.90;52.50;;;;;;5286160;28;20143;-77
2021/03/15 01:04:13;;;;;;;8.43;1.10;;;20.90;52.50;;;;;;5271664;28;20024;-78
2021/03/15 01:06:44;;;;;;;4.65;1.52;;;20.90;52.70;;;;;;5288777;28;20537;-77
2021/03/15 01:09:14;;;;;;;11.80;1.25;;;20.90;52.90;;;;;;5270829;28;20119;-78
2021/03/15 01:11:45;;;;;;;15.35;2.15;;;20.90;53.10;;;;;;5254716;28;20019;-77
2021/03/15 01:14:16;;;;;;;12.90;1.73;;;20.90;53.30;;;;;;5271241;28;20024;-77
2021/03/15 01:16:46;;;;;;;11.70;1.60;;;20.90;53.40;;;;;;5286336;28;20039;-77
2021/03/15 01:19:17;;;;;;;11.50;1.65;;;20.90;53.30;;;;;;5254146;28;20077;-78
2021/03/15 01:21:47;;;;;;;9.55;1.40;;;20.80;53.30;;;;;;5271280;28;20020;-78
2021/03/15 01:24:18;;;;;;;6.68;1.10;;;20.80;53.60;;;;;;5254279;28;20024;-78
2021/03/15 01:26:48;;;;;;;11.80;1.33;;;20.80;53.50;;;;;;5254419;28;20432;-77
2021/03/15 01:29:19;;;;;;;11.75;1.80;;;20.90;53.60;;;;;;5270706;28;20028;-77
2021/03/15 01:31:49;;;;;;;9.98;1.20;;;20.80;53.70;;;;;;5287361;28;20093;-77
2021/03/15 01:34:20;;;;;;;6.72;0.90;;;20.90;53.90;;;;;;5286389;28;20063;-79
2021/03/15 01:36:50;;;;;;;8.38;1.48;;;20.90;53.90;;;;;;5288212;28;20375;-77
2021/03/15 01:39:21;;;;;;;5.72;1.55;;;20.90;53.90;;;;;;5270183;28;20031;-77
2021/03/15 01:41:51;;;;;;;8.02;1.27;;;20.90;53.90;;;;;;5253870;28;20028;-77
2021/03/15 01:44:22;;;;;;;4.13;1.20;;;20.90;54.10;;;;;;5270165;28;20435;-77
2021/03/15 01:46:52;;;;;;;7.28;1.13;;;20.80;54.00;;;;;;5268393;28;20085;-77
2021/03/15 01:49:23;;;;;;;7.25;1.20;;;20.90;53.90;;;;;;5269132;28;20085;-78
2021/03/15 01:51:53;;;;;;;5.75;1.30;;;20.90;53.80;;;;;;5266085;28;20111;-78
2021/03/15 01:54:24;;;;;;;6.20;1.02;;;20.80;53.60;;;;;;5267182;28;20137;-78
2021/03/15 01:56:54;;;;;;;5.45;0.93;;;20.90;53.50;;;;;;5264422;28;20024;-78
2021/03/15 01:59:25;;;;;;;14.45;1.48;;;20.90;53.80;;;;;;5271224;28;20019;-77
2021/03/15 02:01:55;;;;;;;7.10;1.08;;;20.80;53.60;;;;;;5265318;28;20509;-78
2021/03/15 02:04:27;;;;;;;4.45;1.10;;;20.80;54.00;;;;;;5250088;28;20047;-78
2021/03/15 02:06:57;;;;;;;5.00;1.10;;;20.80;53.20;;;;;;5267708;28;20016;-77
2021/03/15 02:09:28;;;;;;;4.53;1.25;;;20.80;53.30;;;;;;5267213;28;20502;-77
2021/03/15 02:12:08;;;;;;;2.40;1.00;;;20.80;53.20;;;;;;5249624;28;20024;-78
2021/03/15 02:14:53;;;;;;;3.50;0.90;;;20.80;53.20;;;;;;5280968;28;20023;-78
2021/03/15 02:17:36;;;;;;;8.82;1.02;;;20.70;53.20;;;;;;5251306;28;20104;-77
2021/03/15 02:20:16;;;;;;;4.90;0.95;;;20.70;53.10;;;;;;5266870;28;20059;-78
2021/03/15 02:23:22;;;;;;;4.88;0.90;;;20.70;53.20;;;;;;5250127;28;20032;-78
2021/03/15 02:26:27;;;;;;;2.83;1.15;;;20.80;53.10;;;;;;5250398;28;20425;-77
2021/03/15 02:29:22;;;;;;;3.53;0.93;;;20.80;53.00;;;;;;5266383;28;20028;-78
2021/03/15 02:32:13;;;;;;;4.22;1.23;;;20.70;53.10;;;;;;5264920;28;20028;-77
2021/03/15 02:35:09;;;;;;;3.80;1.15;;;20.70;53.10;;;;;;5246830;28;20070;-78
2021/03/15 02:37:45;;;;;;;3.97;1.38;;;20.70;53.00;;;;;;5235165;28;20024;-78
2021/03/15 02:40:28;;;;;;;4.03;1.10;;;20.70;53.10;;;;;;5249907;28;20032;-78
2021/03/15 02:43:23;;;;;;;3.08;1.02;;;20.80;53.20;;;;;;5256167;28;20032;-78
2021/03/15 02:45:57;;;;;;;3.95;1.00;;;20.80;52.90;;;;;;5246497;28;20044;-77
2021/03/15 02:48:27;;;;;;;7.55;0.95;;;20.80;53.10;;;;;;5228462;28;20032;-78
2021/03/15 02:50:58;;;;;;;9.98;1.10;;;20.80;53.40;;;;;;5215967;28;20016;-78
2021/03/15 02:53:29;;;;;;;4.13;0.95;;;20.80;53.30;;;;;;5249579;28;20040;-78
2021/03/15 02:56:01;;;;;;;3.53;0.85;;;20.90;53.40;;;;;;5235680;28;20432;-78
2021/03/15 02:58:32;;;;;;;7.05;1.38;;;20.90;53.40;;;;;;5244793;28;20670;-77
2021/03/15 03:01:03;;;;;;;25.95;1.35;;;21.00;53.50;;;;;;5231974;28;20043;-79
2021/03/15 03:03:33;;;;;;;5.80;0.93;;;21.00;53.90;;;;;;5258456;28;20406;-79
2021/03/15 03:06:04;;;;;;;4.35;1.23;;;21.00;53.70;;;;;;5282441;28;20429;-77
2021/03/15 03:08:35;;;;;;;7.03;1.42;;;21.00;53.40;;;;;;5254544;28;20640;-78
2021/03/15 03:11:05;;;;;;;3.55;1.10;;;21.00;53.40;;;;;;5219472;28;20031;-77
2021/03/15 03:13:36;;;;;;;8.23;1.08;;;21.00;53.50;;;;;;5245042;28;20503;-78
2021/03/15 03:16:07;;;;;;;14.73;1.17;;;21.00;53.40;;;;;;5244943;28;20040;-77
2021/03/15 03:18:37;;;;;;;4.90;0.85;;;21.00;53.50;;;;;;5243958;28;20021;-78
2021/03/15 03:21:08;;;;;;;5.03;0.88;;;21.00;53.40;;;;;;5244210;28;20021;-78
2021/03/15 03:23:39;;;;;;;3.75;1.00;;;21.00;53.40;;;;;;5243907;28;20040;-78
2021/03/15 03:26:09;;;;;;;2.60;0.80;;;21.00;53.40;;;;;;5248649;28;20559;-77
2021/03/15 03:28:39;;;;;;;3.53;0.90;;;21.00;53.30;;;;;;5247074;28;20040;-78
2021/03/15 03:31:10;;;;;;;3.38;1.00;;;21.00;53.40;;;;;;5251047;28;20131;-78
2021/03/15 03:33:41;;;;;;;4.63;0.75;;;21.00;53.40;;;;;;5244528;28;20568;-77
2021/03/15 03:36:12;;;;;;;4.00;0.90;;;21.00;53.40;;;;;;5246562;28;20035;-78
2021/03/15 03:38:43;;;;;;;2.05;1.00;;;21.00;53.30;;;;;;5254538;28;20484;-78
2021/03/15 03:41:13;;;;;;;2.75;0.90;;;21.00;53.30;;;;;;5228180;28;20455;-78
2021/03/15 03:43:44;;;;;;;3.38;0.80;;;21.00;53.30;;;;;;5236657;28;20043;-77
2021/03/15 03:46:15;;;;;;;2.60;0.80;;;21.00;53.30;;;;;;5262372;28;20036;-78
2021/03/15 03:48:45;;;;;;;3.38;0.90;;;21.00;53.20;;;;;;5243745;28;20029;-79
2021/03/15 03:51:17;;;;;;;3.05;0.85;;;21.00;53.20;;;;;;5245367;28;20048;-78
2021/03/15 03:53:58;;;;;;;3.63;1.05;;;21.00;53.10;;;;;;5244022;28;20036;-78
2021/03/15 03:56:31;;;;;;;4.85;1.42;;;21.00;53.20;;;;;;5251666;28;20024;-79
2021/03/15 03:59:02;;;;;;;2.63;0.80;;;21.00;53.20;;;;;;5266210;28;20039;-78
2021/03/15 04:01:36;;;;;;;7.97;0.90;;;21.00;53.30;;;;;;5241349;28;20025;-80
2021/03/15 04:04:06;;;;;;;2.85;1.00;;;21.00;53.30;;;;;;5242808;28;20032;-77
2021/03/15 04:06:37;;;;;;;5.35;0.85;;;21.00;53.40;;;;;;5246716;28;20025;-78
2021/03/15 04:09:14;;;;;;;6.60;0.80;;;21.00;53.20;;;;;;5267428;28;20039;-79
2021/03/15 04:11:47;;;;;;;5.00;0.70;;;21.00;53.20;;;;;;5271009;28;20398;-78
2021/03/15 04:14:31;;;;;;;1.85;0.70;;;21.00;53.20;;;;;;5231940;28;20032;-78
2021/03/15 04:17:02;;;;;;;2.38;0.60;;;21.00;53.40;;;;;;5223961;28;20039;-78
2021/03/15 04:19:39;;;;;;;5.60;1.50;;;21.00;53.20;;;;;;5248068;28;20088;-77
2021/03/15 04:22:10;;;;;;;5.85;1.17;;;21.00;53.20;;;;;;5252265;28;20058;-78
2021/03/15 04:24:41;;;;;;;3.67;0.75;;;21.00;53.50;;;;;;5230701;28;20036;-78
2021/03/15 04:27:11;;;;;;;3.45;0.75;;;21.00;53.50;;;;;;5249642;28;20055;-77
2021/03/15 04:29:42;;;;;;;2.60;0.80;;;21.00;53.60;;;;;;5236202;28;20032;-77
2021/03/15 04:32:12;;;;;;;2.15;1.00;;;21.00;53.60;;;;;;5251589;28;20490;-79
2021/03/15 04:34:43;;;;;;;6.10;0.85;;;21.00;53.50;;;;;;5268624;28;20036;-78
2021/03/15 04:37:13;;;;;;;1.35;0.60;;;21.00;53.60;;;;;;5229615;28;20020;-77
2021/03/15 04:39:44;;;;;;;2.55;0.85;;;20.90;53.40;;;;;;5248659;28;20031;-78
2021/03/15 04:42:14;;;;;;;2.55;0.77;;;21.00;53.60;;;;;;5250707;28;20043;-78
2021/03/15 04:44:45;;;;;;;2.95;0.60;;;21.00;53.70;;;;;;5235065;28;20422;-78
2021/03/15 04:47:17;;;;;;;1.80;0.63;;;21.00;53.50;;;;;;5233639;28;20406;-78
2021/03/15 04:49:48;;;;;;;5.30;0.77;;;21.00;53.60;;;;;;5253233;28;20451;-78
2021/03/15 04:52:19;;;;;;;7.05;0.77;;;21.00;53.90;;;;;;5240441;28;20039;-78
2021/03/15 04:54:49;;;;;;;5.63;0.93;;;21.00;53.90;;;;;;5235766;28;20020;-78
2021/03/15 04:57:20;;;;;;;3.08;0.80;;;21.00;53.80;;;;;;5221296;28;20083;-78
2021/03/15 04:59:50;;;;;;;4.68;0.70;;;21.00;54.00;;;;;;5248840;28;20161;-78
2021/03/15 05:02:21;;;;;;;6.07;0.80;;;21.00;53.90;;;;;;5251673;28;20514;-79
2021/03/15 05:04:51;;;;;;;2.45;0.70;;;21.00;53.90;;;;;;5236380;28;20024;-78
2021/03/15 05:07:22;;;;;;;2.83;0.85;;;21.00;53.90;;;;;;5238210;28;20165;-78
2021/03/15 05:09:52;;;;;;;2.80;0.60;;;21.00;54.00;;;;;;5252325;28;20425;-78
2021/03/15 05:12:23;;;;;;;1.33;0.60;;;21.00;53.90;;;;;;5230580;28;20027;-78
2021/03/15 05:14:55;;;;;;;1.65;0.60;;;21.00;53.80;;;;;;5231735;28;20031;-78
2021/03/15 05:17:25;;;;;;;3.63;0.60;;;21.00;54.00;;;;;;5223796;28;20554;-78
2021/03/15 05:19:56;;;;;;;1.52;0.70;;;21.00;53.90;;;;;;5247950;28;20096;-78
2021/03/15 05:22:26;;;;;;;2.65;0.80;;;21.00;53.80;;;;;;5261083;28;20020;-78
2021/03/15 05:24:57;;;;;;;2.67;0.70;;;21.00;53.80;;;;;;5240712;28;20032;-78
2021/03/15 05:27:27;;;;;;;2.53;0.80;;;21.00;53.70;;;;;;5261237;28;20024;-78
2021/03/15 05:30:00;;;;;;;2.15;0.68;;;21.00;53.70;;;;;;5235038;28;20494;-78
2021/03/15 05:32:32;;;;;;;1.83;0.70;;;21.00;53.70;;;;;;5236992;28;20032;-79
2021/03/15 05:35:04;;;;;;;1.30;0.60;;;21.00;53.70;;;;;;5251994;28;20021;-79
2021/03/15 05:37:34;;;;;;;2.40;0.38;;;21.10;53.90;;;;;;5224382;28;20135;-78
2021/03/15 05:40:05;;;;;;;3.47;0.73;;;21.00;53.90;;;;;;5248669;28;20021;-77
2021/03/15 05:43:04;;;;;;;7.55;1.00;;;21.10;53.90;;;;;;5249784;28;20510;-78
2021/03/15 05:45:45;;;;;;;6.55;0.70;;;21.10;53.70;;;;;;5266327;28;20040;-78
2021/03/15 05:48:55;;;;;;;2.13;0.73;;;21.00;53.80;;;;;;5256759;28;20056;-78
2021/03/15 05:51:37;;;;;;;2.47;0.50;;;21.00;53.90;;;;;;5241201;28;20039;-78
2021/03/15 05:54:30;;;;;;;4.65;1.02;;;21.00;53.90;;;;;;5268768;28;20588;-78
2021/03/15 05:57:31;;;;;;;3.30;0.90;;;21.00;53.90;;;;;;5253037;28;20036;-78
2021/03/15 06:00:22;;;;;;;1.63;0.55;;;21.00;54.00;;;;;;5247492;28;20399;-78
2021/03/15 06:02:56;;;;;;;1.33;0.65;;;21.00;53.90;;;;;;5269264;28;20028;-78
2021/03/15 06:05:30;;;;;;;2.53;0.60;;;21.00;53.70;;;;;;5266363;28;20024;-78
2021/03/15 06:08:06;;;;;;;1.75;0.70;;;21.00;53.80;;;;;;5235825;28;20029;-78
2021/03/15 06:10:41;;;;;;;1.02;0.52;;;21.00;53.90;;;;;;5248718;28;20067;-77
2021/03/15 06:13:13;;;;;;;2.03;0.60;;;21.00;53.80;;;;;;5267630;28;20028;-78
2021/03/15 06:15:47;;;;;;;0.75;0.50;;;21.00;53.90;;;;;;5244956;28;20044;-78
2021/03/15 06:18:18;;;;;;;9.67;0.90;;;21.00;54.00;;;;;;5246364;28;20025;-78
2021/03/15 06:20:49;;;;;;;6.38;0.85;;;21.00;54.70;;;;;;5232884;28;20023;-78
2021/03/15 06:23:19;;;;;;;5.18;1.25;;;21.10;54.20;;;;;;5232986;28;20035;-78
2021/03/15 06:25:50;;;;;;;9.60;0.93;;;21.10;54.00;;;;;;5245790;28;20036;-78
2021/03/15 06:28:21;;;;;;;8.32;0.85;;;21.10;54.00;;;;;;5247206;28;20043;-79
2021/03/15 06:30:52;;;;;;;7.78;0.82;;;21.20;54.00;;;;;;5243738;28;20376;-77
2021/03/15 06:33:23;;;;;;;5.07;0.98;;;21.20;54.00;;;;;;5236688;28;20094;-78
2021/03/15 06:35:57;;;;;;;7.28;1.27;;;21.20;53.60;;;;;;5277142;28;20032;-78
2021/03/15 06:38:28;;;;;;;11.20;1.25;;;21.20;53.90;;;;;;5283270;27;20089;-77
2021/03/15 06:40:59;;;;;;;19.67;1.60;;;21.20;53.70;;;;;;5258119;28;20016;-78
2021/03/15 06:43:30;;;;;;;11.63;1.10;;;21.20;54.00;;;;;;5258606;28;20424;-78
2021/03/15 06:46:00;;;;;;;15.00;1.20;;;21.30;54.40;;;;;;5252668;28;20120;-78
2021/03/15 06:48:31;;;;;;;8.82;0.88;;;21.30;54.20;;;;;;5245962;28;20105;-78
2021/03/15 06:51:01;;;;;;;10.25;1.00;;;21.20;53.60;;;;;;5274404;28;20028;-77
2021/03/15 06:53:39;;;;;;;10.90;1.42;;;21.20;53.20;;;;;;5266441;28;20025;-77
2021/03/15 06:56:14;;;;;;;14.15;1.23;;;21.20;52.90;;;;;;5285027;27;20447;-79
2021/03/15 06:58:48;;;;;;;7.18;0.82;;;21.20;52.80;;;;;;5242378;28;20076;-79
2021/03/15 07:01:24;;;;;;;4.28;0.95;;;21.20;52.60;;;;;;5256468;28;20568;-78
2021/03/15 07:04:08;;;;;;;5.53;0.90;;;21.20;52.50;;;;;;5237093;28;20024;-80
2021/03/15 07:06:40;;;;;;;6.47;0.88;;;21.20;52.30;;;;;;5257446;28;20016;-79
2021/03/15 07:09:11;;;;;;;2.88;0.82;;;21.20;52.40;;;;;;5263655;28;20032;-79
2021/03/15 07:11:42;;;;;;;6.78;0.90;;;21.10;52.30;;;;;;5270852;28;20028;-79
2021/03/15 07:14:23;;;;;;;3.95;0.90;;;21.10;52.20;;;;;;5282780;28;20043;-78
2021/03/15 07:17:00;;;;;;;5.57;0.90;;;21.10;52.30;;;;;;5257603;28;20123;-77
2021/03/15 07:19:30;;;;;;;8.52;1.10;;;21.10;52.00;;;;;;5248655;28;20073;-79
2021/03/15 07:22:17;;;;;;;3.10;0.80;;;21.20;52.00;;;;;;5230604;28;20020;-79
2021/03/15 07:25:09;;;;;;;4.85;0.60;;;21.10;51.80;;;;;;5264652;28;20497;-78
2021/03/15 07:27:41;;;;;;;5.95;1.00;;;21.20;51.50;;;;;;5239390;28;20048;-79
2021/03/15 07:30:30;;;;;;;3.25;0.93;;;21.20;51.50;;;;;;5278213;27;20069;-77
2021/03/15 07:33:03;;;;;;;3.95;1.27;;;21.20;51.70;;;;;;5270963;28;20028;-79
2021/03/15 07:35:35;;;;;;;2.55;0.82;;;21.10;51.60;;;;;;5243935;28;20076;-78
2021/03/15 07:38:06;;;;;;;6.78;1.00;;;21.10;51.50;;;;;;5255762;28;20039;-79
2021/03/15 07:40:44;;;;;;;1.35;0.70;;;21.10;51.40;;;;;;5259743;28;20020;-77
2021/03/15 07:43:26;;;;;;;2.85;0.80;;;21.10;51.30;;;;;;5264060;28;20067;-78
2021/03/15 07:45:56;;;;;;;7.25;1.00;;;21.20;51.40;;;;;;5237256;28;20044;-78
2021/03/15 07:48:32;;;;;;;2.92;0.82;;;21.10;51.40;;;;;;5250465;28;20070;-79
2021/03/15 07:51:04;;;;;;;3.95;0.77;;;21.10;51.60;;;;;;5263152;28;20050;-79
2021/03/15 07:53:35;;;;;;;2.30;0.80;;;21.10;52.20;;;;;;5262139;28;20068;-79
2021/03/15 07:56:06;;;;;;;3.17;0.77;;;21.10;51.50;;;;;;5262724;28;20055;-78
2021/03/15 07:58:38;;;;;;;5.05;0.90;;;21.10;51.40;;;;;;5278865;28;20494;-79
2021/03/15 08:01:09;;;;;;;2.50;0.63;;;21.10;51.60;;;;;;5260115;28;20036;-79
2021/03/15 08:03:41;;;;;;;8.85;0.90;;;21.10;51.50;;;;;;5265793;28;20074;-78
2021/03/15 08:06:11;;;;;;;3.67;0.77;;;21.10;51.50;;;;;;5245532;28;20470;-80
2021/03/15 08:08:42;;;;;;;1.83;0.70;;;21.10;51.50;;;;;;5271411;28;20080;-79
2021/03/15 08:11:14;;;;;;;3.20;0.95;;;21.10;51.40;;;;;;5239619;28;20104;-79
2021/03/15 08:13:47;;;;;;;1.67;0.73;;;21.10;51.30;;;;;;5261609;28;20031;-78
2021/03/15 08:16:22;;;;;;;2.17;0.60;;;21.10;51.20;;;;;;5271633;28;20028;-78
2021/03/15 08:18:54;;;;;;;3.03;0.80;;;21.10;51.10;;;;;;5218975;28;20120;-79
2021/03/15 08:21:36;;;;;;;2.33;0.80;;;21.10;51.00;;;;;;5247960;28;20017;-79
2021/03/15 08:24:07;;;;;;;1.33;0.77;;;21.20;50.90;;;;;;5236962;28;20119;-78
2021/03/15 08:26:39;;;;;;;2.33;0.70;;;21.20;50.80;;;;;;5251627;28;20016;-78
2021/03/15 08:29:09;;;;;;;2.10;0.90;;;21.20;50.70;;;;;;5251684;28;20037;-78
2021/03/15 08:31:47;;;;;;;3.92;0.90;;;21.20;50.80;;;;;;5243147;28;20038;-78
2021/03/15 08:34:18;;;;;;;2.40;0.85;;;21.20;50.70;;;;;;5271438;28;20101;-79
2021/03/15 08:36:48;;;;;;;3.90;0.82;;;21.20;50.70;;;;;;5271540;28;20027;-78
2021/03/15 08:39:32;;;;;;;2.50;0.70;;;21.20;50.50;;;;;;5275921;28;20040;-79
2021/03/15 08:42:08;;;;;;;2.42;0.85;;;21.20;50.60;;;;;;5257879;28;20032;-78
2021/03/15 08:44:45;;;;;;;2.78;0.77;;;21.20;50.60;;;;;;5278711;28;20062;-78
2021/03/15 08:47:49;;;;;;;4.03;0.80;;;21.20;50.50;;;;;;5234073;28;20047;-79
2021/03/15 08:50:35;;;;;;;4.90;0.93;;;21.20;50.50;;;;;;5266013;28;20082;-78
2021/03/15 08:53:05;;;;;;;2.97;0.82;;;21.20;50.60;;;;;;5280205;28;20035;-79
2021/03/15 08:55:42;;;;;;;4.07;0.77;;;21.20;50.70;;;;;;5226918;28;20016;-79
2021/03/15 08:58:37;;;;;;;2.38;0.80;;;21.20;50.80;;;;;;5267877;28;20102;-80
2021/03/15 09:01:11;;;;;;;3.13;1.10;;;21.20;50.90;;;;;;5242998;28;20579;-78
2021/03/15 09:03:55;;;;;;;5.53;1.45;;;21.10;50.90;;;;;;5259430;28;20143;-77
2021/03/15 09:06:37;;;;;;;3.80;0.80;;;21.10;50.90;;;;;;5257118;28;20031;-76
2021/03/15 09:09:08;;;;;;;2.88;1.00;;;21.10;51.00;;;;;;5257054;28;20032;-77
2021/03/15 09:11:41;;;;;;;7.38;0.98;;;21.10;50.90;;;;;;5239920;28;20505;-79
2021/03/15 09:14:27;;;;;;;4.05;0.82;;;21.10;51.00;;;;;;5255202;28;20028;-78
2021/03/15 09:16:59;;;;;;;;;;;21.10;51.00;;;;;;5258754;27;20033;-77
2021/03/15 09:19:35;;;;;;;3.22;1.00;;;21.00;51.00;;;;;;5241098;28;19912;-79
2021/03/15 09:22:24;;;;;;;3.65;1.10;;;21.10;51.10;;;;;;5225862;28;20032;-78
2021/03/15 09:25:02;;;;;;;4.38;0.93;;;21.00;51.10;;;;;;5262977;28;20453;-78
2021/03/15 09:27:43;;;;;;;5.85;1.08;;;21.00;51.20;;;;;;5241750;28;20032;-79
2021/03/15 09:30:24;;;;;;;4.40;1.15;;;21.00;51.20;;;;;;5256992;28;20032;-79
2021/03/15 09:32:56;;;;;;;2.75;0.98;;;21.00;51.20;;;;;;5242141;28;20039;-78
2021/03/15 09:35:31;;;;;;;3.88;1.02;;;21.00;51.30;;;;;;5226373;28;20024;-79
2021/03/15 09:38:05;;;;;;;;;;;21.00;51.30;;;;;;5227209;28;20106;-78
2021/03/15 09:40:40;;;;;;;5.63;1.17;;;21.00;51.30;;;;;;5275734;28;20028;-78
2021/03/15 09:43:10;;;;;;;3.45;0.93;;;21.00;51.30;;;;;;5269235;28;20033;-79
2021/03/15 09:45:41;;;;;;;3.47;0.90;;;21.00;51.30;;;;;;5242526;28;20049;-78
2021/03/15 09:48:20;;;;;;;5.82;1.10;;;21.00;51.70;;;;;;5260157;28;20024;-78
2021/03/15 09:50:55;;;;;;;4.72;0.73;;;21.00;52.10;;;;;;5282393;28;20434;-78
2021/03/15 09:53:25;;;;;;;3.00;0.80;;;21.00;51.80;;;;;;5266363;28;20108;-77
2021/03/15 09:56:06;;;;;;;3.45;1.10;;;21.10;51.70;;;;;;5271216;28;20389;-79
2021/03/15 09:58:37;;;;;;;3.92;1.20;;;21.10;51.70;;;;;;5262891;28;20490;-78
2021/03/15 10:01:29;;;;;;;3.42;1.40;;;21.10;51.50;;;;;;5252539;28;20402;-77
2021/03/15 10:03:59;;;;;;;5.45;0.93;;;21.10;51.60;;;;;;5247765;28;20498;-81
2021/03/15 10:06:30;;;;;;;5.18;1.20;;;21.10;51.60;;;;;;5267918;28;20028;-78
2021/03/15 10:09:04;;;;;;;6.38;1.00;;;21.10;51.60;;;;;;5267077;28;20040;-81
2021/03/15 10:11:41;;;;;;;2.78;1.20;;;21.10;51.60;;;;;;5250094;28;20111;-79
2021/03/15 10:14:12;;;;;;;3.95;1.17;;;21.10;51.50;;;;;;5261047;27;20059;-76
2021/03/15 10:16:56;;;;;;;2.45;0.82;;;21.10;51.70;;;;;;5239116;28;20104;-75
2021/03/15 10:19:28;;;;;;;3.80;1.02;;;21.00;51.70;;;;;;5253342;28;20035;-77
2021/03/15 10:22:10;;;;;;;5.13;1.13;;;21.00;51.60;;;;;;5260590;28;20058;-76
2021/03/15 10:24:41;;;;;;;2.17;1.08;;;21.10;51.60;;;;;;5264352;28;20036;-75
2021/03/15 10:27:17;;;;;;;2.30;0.70;;;21.00;51.60;;;;;;5231061;28;20024;-78
2021/03/15 10:29:57;;;;;;;7.93;1.38;;;21.10;51.60;;;;;;5214793;28;20024;-73
2021/03/15 10:32:29;;;;;;;3.05;1.23;;;21.10;51.50;;;;;;5245683;28;20039;-80
2021/03/15 10:35:01;;;;;;;6.00;1.10;;;21.10;51.30;;;;;;5239224;28;20025;-77
2021/03/15 10:37:39;;;;;;;6.85;1.42;;;21.10;51.10;;;;;;5252789;28;20027;-79
2021/03/15 10:40:11;;;;;;;11.63;1.30;;;21.10;51.50;;;;;;5249114;28;20055;-78
2021/03/15 10:42:41;;;;;;;3.35;1.10;;;21.10;51.20;;;;;;5239905;28;20063;-78
2021/03/15 10:45:12;;;;;;;6.97;1.33;;;21.10;51.20;;;;;;5240866;28;20077;-78
2021/03/15 10:47:43;;;;;;;2.47;1.05;;;21.10;51.20;;;;;;5247191;28;20029;-77
2021/03/15 10:50:32;;;;;;;3.58;1.00;;;21.10;51.30;;;;;;5239772;28;20069;-77
2021/03/15 10:53:13;;;;;;;2.55;1.00;;;21.00;51.30;;;;;;5268547;28;20032;-78
2021/03/15 10:55:44;;;;;;;4.15;1.27;;;21.00;51.30;;;;;;5250821;28;20024;-79
2021/03/15 10:58:15;;;;;;;3.60;1.10;;;21.00;51.30;;;;;;5255864;28;20184;-77
2021/03/15 11:00:49;;;;;;;2.03;0.80;;;21.00;51.30;;;;;;5261953;28;20085;-77
2021/03/15 11:03:21;;;;;;;2.90;1.20;;;21.00;51.30;;;;;;5261010;28;20088;-77
2021/03/15 11:06:13;;;;;;;6.30;1.20;;;21.00;51.40;;;;;;5238970;28;20042;-78
2021/03/15 11:08:57;;;;;;;4.22;1.45;;;21.00;51.40;;;;;;5232572;28;20082;-78
2021/03/15 11:11:29;;;;;;;2.80;1.10;;;21.00;51.30;;;;;;5248413;28;20020;-79
2021/03/15 11:14:06;;;;;;;2.80;1.00;;;21.00;51.30;;;;;;5262796;28;20055;-77
2021/03/15 11:16:37;;;;;;;2.35;1.13;;;21.00;51.20;;;;;;5257777;28;20024;-78
2021/03/15 11:19:12;;;;;;;4.32;1.10;;;21.00;51.20;;;;;;5231158;28;20106;-77
2021/03/15 11:21:44;;;;;;;5.45;1.20;;;21.00;51.20;;;;;;5227526;28;20027;-78
2021/03/15 11:24:14;;;;;;;3.45;1.10;;;21.00;51.20;;;;;;5201262;28;20030;-79
2021/03/15 11:26:46;;;;;;;6.75;1.17;;;21.00;51.30;;;;;;5233686;28;20052;-77
2021/03/15 11:29:17;;;;;;;4.10;1.00;;;21.00;51.20;;;;;;5260791;28;20024;-77
2021/03/15 11:31:49;;;;;;;2.30;0.95;;;21.00;51.20;;;;;;5240020;28;20032;-78
2021/03/15 11:34:20;;;;;;;3.67;1.30;;;20.90;51.10;;;;;;5254290;28;20031;-79
2021/03/15 11:36:54;;;;;;;4.10;1.13;;;21.00;51.20;;;;;;5245374;28;20055;-77
2021/03/15 11:39:24;;;;;;;2.72;1.05;;;21.00;51.20;;;;;;5281844;27;20054;-78
2021/03/15 11:41:55;;;;;;;4.50;1.50;;;21.00;51.20;;;;;;5290727;27;20024;-78
2021/03/15 11:44:26;;;;;;;3.35;1.20;;;21.00;51.10;;;;;;5265738;28;20043;-79
2021/03/15 11:46:56;;;;;;;4.90;1.10;;;21.10;51.10;;;;;;5238971;28;20048;-79
2021/03/15 11:49:27;;;;;;;3.58;1.20;;;21.10;51.20;;;;;;5276949;27;20032;-77
2021/03/15 11:51:57;;;;;;;3.10;1.13;;;21.00;51.20;;;;;;5287991;27;20031;-78
2021/03/15 11:54:28;;;;;;;4.70;1.10;;;21.00;51.20;;;;;;5278341;27;20575;-79
2021/03/15 11:56:58;;;;;;;5.53;1.52;;;21.00;51.40;;;;;;5280812;28;20064;-79
2021/03/15 11:59:29;;;;;;;7.28;1.17;;;21.00;52.20;;;;;;5284076;28;20039;-78
2021/03/15 12:01:59;;;;;;;6.18;1.25;;;21.00;52.30;;;;;;5254489;28;20445;-80
2021/03/15 12:04:30;;;;;;;6.28;1.20;;;21.00;52.20;;;;;;5235904;28;20024;-80
2021/03/15 12:07:00;;;;;;;8.15;1.75;;;21.10;51.90;;;;;;5237549;28;20081;-79
2021/03/15 12:09:31;;;;;;;12.52;1.73;;;21.10;51.90;;;;;;5267579;28;20407;-79
2021/03/15 12:12:01;;;;;;;6.25;1.20;;;21.00;51.80;;;;;;5289708;28;20034;-80
2021/03/15 12:14:32;;;;;;;10.68;2.58;;;21.00;51.80;;;;;;5271293;27;20027;-79
2021/03/15 12:17:03;;;;;;;8.07;1.90;;;21.00;52.60;;;;;;5253033;28;20040;-79
2021/03/15 12:19:33;;;;;;;9.23;1.63;;;21.00;52.60;;;;;;5269373;27;20028;-79
2021/03/15 12:22:04;;;;;;;11.13;1.98;;;21.00;52.40;;;;;;5271136;28;20502;-79
2021/03/15 12:24:34;;;;;;;6.70;1.70;;;21.00;52.20;;;;;;5237053;28;20036;-79
2021/03/15 12:27:05;;;;;;;8.57;1.85;;;21.00;52.00;;;;;;5229426;28;20103;-79
2021/03/15 12:29:37;;;;;;;6.80;1.45;;;21.00;52.00;;;;;;5265929;28;20027;-79
2021/03/15 12:32:07;;;;;;;8.30;2.10;;;21.00;52.00;;;;;;5225269;28;20514;-80
2021/03/15 12:34:38;;;;;;;10.50;1.73;;;20.90;52.30;;;;;;5247845;28;20032;-79
2021/03/15 12:37:08;;;;;;;7.13;1.60;;;20.80;52.30;;;;;;5247549;28;20020;-79
2021/03/15 12:39:39;;;;;;;7.93;1.77;;;20.80;52.40;;;;;;5279389;28;20305;-80
2021/03/15 12:42:10;;;;;;;7.28;1.73;;;20.70;52.00;;;;;;5269525;28;20024;-79
2021/03/15 12:44:40;;;;;;;3.55;1.40;;;20.70;52.20;;;;;;5251373;28;20402;-79
2021/03/15 12:47:11;;;;;;;6.28;1.83;;;20.70;52.70;;;;;;5262295;28;20044;-79
2021/03/15 12:49:42;;;;;;;11.90;1.48;;;20.70;51.90;;;;;;5239195;28;20070;-80
2021/03/15 12:52:13;;;;;;;8.10;1.42;;;20.70;51.70;;;;;;5264003;28;20070;-79
2021/03/15 12:54:43;;;;;;;4.07;1.38;;;20.60;51.60;;;;;;5255153;28;20027;-79
2021/03/15 12:57:14;;;;;;;4.88;1.33;;;20.60;51.50;;;;;;5270140;28;20595;-79
2021/03/15 12:59:44;;;;;;;4.15;1.23;;;20.60;51.40;;;;;;5251942;28;20390;-79
2021/03/15 13:02:15;;;;;;;4.45;1.40;;;20.60;51.10;;;;;;5267959;28;20549;-80
2021/03/15 13:04:45;;;;;;;4.95;1.20;;;20.60;51.00;;;;;;5248431;28;20023;-79
2021/03/15 13:07:16;;;;;;;5.97;1.50;;;20.60;51.00;;;;;;5229922;28;20029;-79
2021/03/15 13:09:46;;;;;;;4.55;1.40;;;20.50;50.90;;;;;;5266215;28;20085;-79
2021/03/15 13:12:17;;;;;;;9.27;1.60;;;20.50;50.80;;;;;;5229178;28;20024;-80
2021/03/15 13:14:48;;;;;;;5.65;1.13;;;20.50;50.60;;;;;;5226567;28;20074;-79
2021/03/15 13:17:18;;;;;;;8.95;1.48;;;20.50;50.80;;;;;;5246645;28;20028;-78
2021/03/15 13:19:49;;;;;;;5.15;1.25;;;20.50;50.70;;;;;;5273048;28;20024;-78